Time;durP1;ratioP1;P1;durP2;ratioP2;P2;SDS_P1;SDS_P2;PMS_P1;PMS_P2;Temp;Humidity;BMP_temperature;BMP_pressure;BME280_temperature;BME280_humidity;BME280_pressure;Samples;Min_cycle;Max_cycle;Signal;HPM_P1;HPM_P2
2023/08/12 03:00:38;;;;;;;1.35;1.00;;;22.20;56.00;;;;;;6032149;23;46303;31
2023/08/12 03:03:04;;;;;;;1.30;1.20;;;22.20;56.10;;;;;;4875110;28;46612;-84
2023/08/12 03:05:30;;;;;;;1.40;1.30;;;22.20;56.00;;;;;;4872466;29;47029;-84
2023/08/12 03:07:57;;;;;;;1.48;1.17;;;22.30;56.10;;;;;;4861760;29;45476;-82
2023/08/12 03:10:22;;;;;;;3.25;1.25;;;22.20;56.10;;;;;;4860161;29;44920;-82
2023/08/12 03:12:48;;;;;;;2.70;1.35;;;22.30;56.10;;;;;;4859853;29;45284;-83
2023/08/12 03:15:14;;;;;;;1.33;1.23;;;22.30;56.10;;;;;;4873861;29;47348;-84
2023/08/12 03:17:39;;;;;;;1.65;1.08;;;22.20;56.00;;;;;;4860550;29;46474;-83
2023/08/12 03:20:08;;;;;;;1.70;1.33;;;22.20;56.00;;;;;;4840890;29;48050;-84
2023/08/12 03:22:35;;;;;;;2.35;1.20;;;22.30;56.10;;;;;;4852900;29;45395;-82
2023/08/12 03:25:01;;;;;;;1.40;1.30;;;22.20;56.00;;;;;;4852702;29;45565;-83
2023/08/12 03:27:26;;;;;;;1.27;1.17;;;22.30;56.10;;;;;;4859440;29;45409;-82
2023/08/12 03:29:52;;;;;;;1.98;1.40;;;22.30;56.10;;;;;;4860119;29;45273;-84
2023/08/12 03:32:17;;;;;;;1.38;1.27;;;22.20;56.00;;;;;;4856038;29;44950;-85
2023/08/12 03:34:43;;;;;;;1.48;1.38;;;22.30;56.10;;;;;;4863019;29;45623;-82
2023/08/12 03:37:08;;;;;;;1.60;1.20;;;22.20;56.10;;;;;;4844007;29;44941;-83
2023/08/12 03:39:34;;;;;;;1.40;1.08;;;22.30;56.10;;;;;;4859456;29;45008;-81
2023/08/12 03:41:59;;;;;;;1.50;1.20;;;22.30;56.10;;;;;;4840285;29;45514;-82
2023/08/12 03:44:26;;;;;;;1.33;1.20;;;22.30;56.10;;;;;;4852684;29;45718;-85
2023/08/12 03:46:51;;;;;;;2.22;1.05;;;22.30;56.70;;;;;;4850643;29;45069;-84
2023/08/12 03:49:17;;;;;;;1.75;1.30;;;22.30;56.10;;;;;;4862050;29;45207;-84
2023/08/12 03:51:42;;;;;;;1.17;1.08;;;22.30;56.10;;;;;;4842794;29;45156;-83
2023/08/12 03:54:08;;;;;;;1.27;1.13;;;22.30;56.10;;;;;;4837279;29;46165;-82
2023/08/12 03:56:33;;;;;;;2.88;1.10;;;22.20;56.60;;;;;;4845264;29;45856;-85
2023/08/12 03:58:59;;;;;;;2.90;1.15;;;22.30;56.10;;;;;;4859705;29;44784;-81
2023/08/12 04:01:25;;;;;;;2.05;1.02;;;22.30;56.10;;;;;;4841836;29;45521;-82
2023/08/12 04:03:53;;;;;;;1.40;1.30;;;22.30;56.10;;;;;;4847519;29;45950;-80
2023/08/12 04:06:18;;;;;;;1.10;1.00;;;22.20;56.00;;;;;;4841762;29;44983;-80
2023/08/12 04:08:44;;;;;;;1.27;1.17;;;22.20;56.00;;;;;;4859385;29;45264;-80
2023/08/12 04:11:09;;;;;;;1.20;1.10;;;22.30;56.10;;;;;;4845855;29;45300;-80
2023/08/12 04:13:35;;;;;;;1.85;1.10;;;22.20;56.00;;;;;;4855450;29;46969;-83
2023/08/12 04:16:00;;;;;;;1.30;1.10;;;22.20;56.00;;;;;;4844637;29;45410;-83
2023/08/12 04:18:26;;;;;;;1.85;1.42;;;22.20;56.00;;;;;;4860137;29;45245;-83
2023/08/12 04:20:52;;;;;;;1.85;1.15;;;22.30;56.10;;;;;;4852314;29;44933;-81
2023/08/12 04:23:18;;;;;;;1.88;1.42;;;22.30;56.10;;;;;;4843734;29;47217;-83
2023/08/12 04:25:47;;;;;;;1.58;1.48;;;22.30;56.10;;;;;;4843001;29;45227;-82
2023/08/12 04:28:13;;;;;;;1.35;1.25;;;22.30;56.10;;;;;;4862906;29;45767;-80
2023/08/12 04:30:43;;;;;;;1.60;1.20;;;22.30;56.10;;;;;;4842017;29;45823;-83
2023/08/12 04:33:08;;;;;;;3.95;1.38;;;22.30;56.10;;;;;;4860329;29;47406;-81
2023/08/12 04:35:34;;;;;;;1.38;1.10;;;22.20;56.00;;;;;;4858412;29;45266;-81
2023/08/12 04:37:59;;;;;;;1.73;1.40;;;22.20;56.00;;;;;;4878725;29;45404;-82
2023/08/12 04:40:25;;;;;;;2.97;1.30;;;22.30;56.10;;;;;;4859436;29;45357;-82
2023/08/12 04:42:51;;;;;;;1.20;1.10;;;22.30;56.10;;;;;;4878233;29;47062;-81
2023/08/12 04:45:16;;;;;;;1.23;1.10;;;22.20;56.00;;;;;;4862107;29;45438;-86
2023/08/12 04:47:42;;;;;;;1.02;1.00;;;22.20;56.10;;;;;;4861236;29;45328;-90
2023/08/12 04:50:08;;;;;;;1.70;1.20;;;22.30;56.10;;;;;;4844681;29;45004;-82
2023/08/12 04:52:34;;;;;;;3.78;1.50;;;22.30;56.10;;;;;;4840251;29;47841;-83
2023/08/12 04:54:59;;;;;;;1.50;1.20;;;22.20;56.10;;;;;;4847662;29;45462;-82
2023/08/12 04:57:25;;;;;;;1.30;1.17;;;22.30;56.10;;;;;;4848260;29;45858;-87
2023/08/12 04:59:51;;;;;;;2.00;1.45;;;22.30;56.10;;;;;;4842679;29;44891;-81
2023/08/12 05:02:18;;;;;;;1.20;1.10;;;22.20;56.10;;;;;;4853193;29;47006;-82
2023/08/12 05:04:48;;;;;;;1.02;1.00;;;22.30;56.10;;;;;;4846997;29;44986;-82
2023/08/12 05:07:14;;;;;;;2.08;1.25;;;22.30;56.10;;;;;;4817212;29;45118;-80
2023/08/12 05:09:39;;;;;;;2.88;1.40;;;22.20;56.10;;;;;;4850724;29;45147;-79
2023/08/12 05:12:05;;;;;;;1.35;1.25;;;22.30;56.10;;;;;;4827423;29;47203;-82
2023/08/12 05:14:31;;;;;;;2.88;1.20;;;22.20;56.10;;;;;;4833160;29;44945;-84
2023/08/12 05:16:57;;;;;;;3.97;1.42;;;22.20;56.10;;;;;;4853561;29;44680;-84
2023/08/12 05:19:22;;;;;;;1.38;1.17;;;22.20;56.10;;;;;;4842494;29;45002;-80
2023/08/12 05:21:48;;;;;;;2.72;1.08;;;22.30;56.10;;;;;;4857857;29;46910;-81
2023/08/12 05:24:14;;;;;;;0.93;0.88;;;22.20;56.10;;;;;;4858647;29;45206;-83
2023/08/12 05:26:39;;;;;;;2.03;1.38;;;22.20;56.10;;;;;;4822555;29;45555;-82
2023/08/12 05:29:05;;;;;;;1.83;1.40;;;22.20;56.10;;;;;;4860376;29;45381;-81
2023/08/12 05:31:30;;;;;;;1.45;1.00;;;22.30;56.10;;;;;;4839570;29;46669;-83
2023/08/12 05:33:56;;;;;;;1.85;1.30;;;22.20;56.10;;;;;;4846838;29;45508;-80
2023/08/12 05:36:21;;;;;;;1.55;1.40;;;22.30;56.20;;;;;;4848495;29;44766;-80
2023/08/12 05:38:47;;;;;;;1.55;1.40;;;22.30;56.20;;;;;;4849736;29;45596;-80
2023/08/12 05:41:13;;;;;;;1.52;1.20;;;22.20;56.10;;;;;;4871223;29;46425;-81
2023/08/12 05:43:39;;;;;;;1.70;1.50;;;22.30;56.20;;;;;;4866643;29;45634;-83
2023/08/12 05:46:04;;;;;;;1.58;1.42;;;22.20;56.10;;;;;;4859420;29;44669;-82
2023/08/12 05:48:30;;;;;;;1.63;1.30;;;22.20;56.10;;;;;;4873104;29;45143;-83
2023/08/12 05:50:55;;;;;;;4.05;1.40;;;22.20;56.10;;;;;;4859666;29;45584;-81
2023/08/12 05:53:22;;;;;;;2.33;1.30;;;22.30;56.20;;;;;;4865345;29;44733;-80
2023/08/12 05:55:47;;;;;;;1.48;1.30;;;22.20;56.10;;;;;;4875293;29;45207;-82
2023/08/12 05:58:13;;;;;;;1.70;1.25;;;22.20;56.10;;;;;;4877757;29;46032;-85
2023/08/12 06:00:38;;;;;;;3.15;1.20;;;22.20;56.10;;;;;;4849235;29;47306;-83
2023/08/12 06:03:04;;;;;;;2.00;1.40;;;22.20;56.70;;;;;;4850966;29;44874;-83
2023/08/12 06:05:29;;;;;;;2.00;1.20;;;22.20;56.10;;;;;;4858551;29;44953;-81
2023/08/12 06:07:55;;;;;;;1.27;1.17;;;22.20;56.10;;;;;;4880179;29;44963;-81
2023/08/12 06:10:21;;;;;;;1.15;1.05;;;22.20;56.10;;;;;;4867364;29;46535;-84
2023/08/12 06:12:46;;;;;;;1.50;1.40;;;22.30;56.20;;;;;;4863018;29;45284;-82
2023/08/12 06:15:12;;;;;;;3.08;1.50;;;22.20;56.10;;;;;;4858775;29;45439;-82
2023/08/12 06:17:37;;;;;;;1.40;1.30;;;22.30;56.20;;;;;;4835148;29;46117;-83
2023/08/12 06:20:04;;;;;;;2.28;1.20;;;22.30;56.20;;;;;;4875766;29;46304;-86
2023/08/12 06:22:29;;;;;;;1.90;1.48;;;22.20;56.10;;;;;;4864986;29;45568;-83
2023/08/12 06:24:55;;;;;;;1.55;1.27;;;22.20;56.20;;;;;;4840305;29;45742;-82
2023/08/12 06:27:20;;;;;;;1.25;1.13;;;22.20;56.20;;;;;;4858743;29;45227;-85
2023/08/12 06:29:46;;;;;;;1.92;1.35;;;22.20;56.20;;;;;;4845861;29;48292;-82
2023/08/12 06:32:14;;;;;;;2.58;1.30;;;22.20;56.10;;;;;;4830945;29;45737;-85
2023/08/12 06:34:41;;;;;;;1.60;1.40;;;22.20;56.20;;;;;;4876580;29;45364;-84
2023/08/12 06:37:06;;;;;;;1.20;1.10;;;22.20;56.10;;;;;;4871511;29;45222;-82
2023/08/12 06:39:51;;;;;;;1.48;1.30;;;22.20;56.10;;;;;;4857319;29;44984;-84
2023/08/12 06:42:36;;;;;;;1.80;1.58;;;22.20;56.10;;;;;;4843760;29;44919;-80
2023/08/12 06:45:06;;;;;;;1.83;1.40;;;22.20;56.20;;;;;;4858806;29;45301;-81
2023/08/12 06:47:31;;;;;;;1.20;1.10;;;22.30;56.20;;;;;;4838135;29;45453;-83
2023/08/12 06:49:57;;;;;;;1.58;1.40;;;22.20;56.10;;;;;;4859271;29;47413;-81
2023/08/12 06:52:22;;;;;;;2.65;1.20;;;22.20;56.10;;;;;;4857692;29;45385;-85
2023/08/12 06:54:48;;;;;;;2.35;1.50;;;22.20;56.20;;;;;;4871578;29;45682;-81
2023/08/12 06:57:14;;;;;;;1.75;1.30;;;22.20;56.20;;;;;;4834337;29;45818;-83
2023/08/12 06:59:39;;;;;;;1.77;1.35;;;22.20;56.20;;;;;;4875119;29;45347;-83
2023/08/12 07:02:06;;;;;;;1.45;1.30;;;22.20;56.20;;;;;;4833396;29;45852;-83
2023/08/12 07:04:31;;;;;;;3.10;1.50;;;22.20;56.20;;;;;;4857153;29;45668;-80
2023/08/12 07:06:57;;;;;;;1.70;1.50;;;22.30;56.20;;;;;;4851746;29;45240;-84
2023/08/12 07:09:22;;;;;;;1.63;1.30;;;22.20;56.20;;;;;;4857555;29;45351;-82
2023/08/12 07:11:48;;;;;;;1.60;1.33;;;22.20;56.10;;;;;;4856591;29;45216;-80
2023/08/12 07:14:13;;;;;;;1.45;1.20;;;22.30;56.20;;;;;;4859992;29;45512;-82
2023/08/12 07:16:39;;;;;;;1.20;1.02;;;22.20;56.10;;;;;;4868617;29;46269;-81
2023/08/12 07:19:04;;;;;;;1.80;1.20;;;22.30;56.20;;;;;;4844732;29;46650;-82
2023/08/12 07:21:30;;;;;;;1.23;1.13;;;22.30;56.20;;;;;;4840279;29;45283;-82
2023/08/12 07:23:56;;;;;;;2.72;1.00;;;22.20;56.20;;;;;;4845879;29;45197;-85
2023/08/12 07:26:21;;;;;;;1.35;1.13;;;22.20;56.10;;;;;;4857063;29;45630;-81
2023/08/12 07:28:49;;;;;;;2.63;1.30;;;22.20;56.20;;;;;;4845697;29;47091;-82
2023/08/12 07:31:15;;;;;;;2.22;1.33;;;22.30;56.20;;;;;;4855862;29;45227;-83
2023/08/12 07:33:40;;;;;;;1.83;1.42;;;22.20;56.20;;;;;;4861110;29;45179;-82
2023/08/12 07:36:06;;;;;;;1.33;1.20;;;22.20;56.20;;;;;;4859088;29;45329;-85
2023/08/12 07:38:32;;;;;;;2.13;1.38;;;22.20;56.20;;;;;;4842879;29;47338;-82
2023/08/12 07:40:57;;;;;;;1.25;1.08;;;22.30;56.30;;;;;;4841743;29;45869;-81
2023/08/12 07:43:23;;;;;;;2.30;1.30;;;22.30;56.20;;;;;;4861373;29;46453;-84
2023/08/12 07:45:52;;;;;;;2.35;1.13;;;22.30;56.20;;;;;;4840596;29;45298;-86
2023/08/12 07:48:18;;;;;;;1.25;1.10;;;22.20;56.20;;;;;;4870624;29;46951;-82
2023/08/12 07:50:44;;;;;;;1.25;1.15;;;22.30;56.20;;;;;;4854776;29;45484;-85
2023/08/12 07:53:10;;;;;;;2.28;1.20;;;22.30;56.30;;;;;;4873823;29;45576;-82
2023/08/12 07:55:35;;;;;;;1.20;1.10;;;22.30;56.20;;;;;;4856866;29;45511;-82
2023/08/12 07:58:01;;;;;;;1.33;1.17;;;22.20;56.20;;;;;;4841660;29;45284;-83
2023/08/12 08:00:27;;;;;;;1.40;1.30;;;22.20;56.20;;;;;;4847275;29;44894;-81
2023/08/12 08:02:53;;;;;;;1.10;1.00;;;22.30;56.30;;;;;;4839043;29;45551;-82
2023/08/12 08:05:18;;;;;;;1.27;1.08;;;22.30;56.30;;;;;;4842470;29;45005;-85
2023/08/12 08:07:44;;;;;;;1.25;1.15;;;22.20;56.20;;;;;;4854585;29;45536;-81
2023/08/12 08:10:10;;;;;;;1.38;1.15;;;22.30;56.30;;;;;;4857990;29;45483;-80
2023/08/12 08:12:35;;;;;;;1.48;1.20;;;22.30;56.30;;;;;;4860103;29;45153;-84
2023/08/12 08:15:03;;;;;;;1.35;1.10;;;22.20;56.20;;;;;;4843573;29;45270;-82
2023/08/12 08:17:34;;;;;;;1.38;1.25;;;22.20;56.20;;;;;;4845313;29;45328;-82
2023/08/12 08:20:00;;;;;;;1.30;1.20;;;22.30;56.30;;;;;;4873162;29;45875;-86
2023/08/12 08:22:25;;;;;;;1.30;1.20;;;22.20;56.20;;;;;;4857458;29;45953;-81
2023/08/12 08:24:51;;;;;;;1.33;1.17;;;22.20;56.20;;;;;;4845912;29;45212;-86
2023/08/12 08:27:17;;;;;;;1.30;1.13;;;22.30;56.30;;;;;;4841991;29;47298;-81
2023/08/12 08:29:42;;;;;;;2.25;1.30;;;22.20;56.20;;;;;;4875063;29;45316;-80
2023/08/12 08:32:08;;;;;;;3.35;1.42;;;22.30;56.30;;;;;;4838612;29;45331;-83
2023/08/12 08:34:34;;;;;;;1.45;1.20;;;22.30;56.30;;;;;;4858839;29;45262;-83
2023/08/12 08:36:59;;;;;;;1.20;1.10;;;22.30;56.30;;;;;;4857503;29;49153;-82
2023/08/12 08:39:26;;;;;;;1.40;1.30;;;22.30;56.30;;;;;;4858606;29;45519;-84
2023/08/12 08:41:54;;;;;;;1.15;1.05;;;22.20;56.20;;;;;;4858498;29;44781;-83
2023/08/12 08:44:22;;;;;;;1.20;1.10;;;22.30;56.30;;;;;;4842194;29;45770;-82
2023/08/12 08:46:52;;;;;;;2.47;1.10;;;22.30;56.30;;;;;;4856614;29;46565;-83
2023/08/12 08:49:17;;;;;;;2.85;1.55;;;22.30;56.30;;;;;;4844478;29;46113;-85
2023/08/12 08:51:43;;;;;;;1.80;1.42;;;22.30;56.30;;;;;;4858754;29;45334;-82
2023/08/12 08:54:08;;;;;;;1.75;1.50;;;22.30;56.50;;;;;;4860144;29;46248;-83
2023/08/12 08:56:34;;;;;;;1.40;1.17;;;22.30;56.30;;;;;;4858518;29;46637;-82
2023/08/12 08:59:00;;;;;;;2.55;1.20;;;22.30;56.30;;;;;;4828563;29;45398;-83
2023/08/12 09:01:26;;;;;;;1.40;1.20;;;22.30;56.30;;;;;;4841773;29;45456;-82
2023/08/12 09:03:54;;;;;;;1.17;1.02;;;22.30;56.30;;;;;;4857955;29;45305;-83
2023/08/12 09:06:20;;;;;;;3.13;1.30;;;22.30;56.30;;;;;;4863834;29;47062;-83
2023/08/12 09:08:46;;;;;;;1.67;1.27;;;22.30;56.20;;;;;;4848756;29;45494;-82
2023/08/12 09:11:12;;;;;;;1.42;1.20;;;22.30;56.20;;;;;;4864640;29;44687;-81
2023/08/12 09:13:38;;;;;;;1.17;1.08;;;22.30;56.30;;;;;;4851526;29;44997;-82
2023/08/12 09:16:04;;;;;;;1.20;1.10;;;22.30;56.30;;;;;;4860819;29;47232;-83
2023/08/12 09:18:29;;;;;;;1.33;1.17;;;22.30;56.30;;;;;;4847002;29;44859;-81
2023/08/12 09:20:55;;;;;;;1.55;1.25;;;22.30;56.30;;;;;;4861325;29;45023;-86
2023/08/12 09:23:20;;;;;;;1.38;1.05;;;22.30;56.30;;;;;;4849675;29;44848;-83
2023/08/12 09:25:46;;;;;;;1.30;1.20;;;22.30;56.30;;;;;;4862963;29;46463;-81
2023/08/12 09:28:12;;;;;;;1.13;0.93;;;22.30;56.30;;;;;;4846895;29;45975;-82
2023/08/12 09:30:38;;;;;;;1.40;1.10;;;22.30;56.20;;;;;;4875145;29;45629;-83
2023/08/12 09:33:06;;;;;;;5.93;1.33;;;22.30;56.30;;;;;;4847557;29;45612;-83
2023/08/12 09:35:37;;;;;;;1.20;1.10;;;22.30;56.20;;;;;;4864772;29;46316;-82
2023/08/12 09:38:20;;;;;;;1.67;1.08;;;22.30;56.20;;;;;;4863371;29;45162;-81
2023/08/12 09:40:47;;;;;;;1.05;0.95;;;22.30;56.20;;;;;;4849781;29;45492;-82
2023/08/12 09:43:12;;;;;;;1.13;1.02;;;22.30;56.30;;;;;;4865679;29;45170;-82
2023/08/12 09:45:38;;;;;;;1.30;1.17;;;22.30;56.20;;;;;;4877775;29;45520;-83
2023/08/12 09:48:04;;;;;;;1.23;1.13;;;22.30;56.30;;;;;;4850417;29;45971;-83
2023/08/12 09:50:30;;;;;;;1.52;1.10;;;22.30;56.30;;;;;;4861558;29;45414;-83
2023/08/12 09:52:56;;;;;;;1.25;1.15;;;22.30;56.20;;;;;;4846580;29;44848;-82
2023/08/12 09:55:23;;;;;;;1.17;1.08;;;22.30;56.30;;;;;;4864237;29;45330;-82
2023/08/12 09:57:52;;;;;;;1.10;1.00;;;22.30;56.20;;;;;;4848717;29;45363;-85
2023/08/12 10:00:19;;;;;;;1.30;1.10;;;22.40;56.30;;;;;;4860994;29;45232;-81
2023/08/12 10:02:45;;;;;;;1.60;1.27;;;22.30;56.30;;;;;;4848131;29;45206;-82
2023/08/12 10:05:37;;;;;;;1.23;1.00;;;22.30;56.20;;;;;;4848936;29;47855;-84
2023/08/12 10:08:03;;;;;;;0.82;0.82;;;22.40;56.30;;;;;;4870248;29;45287;-84
2023/08/12 10:10:34;;;;;;;1.50;1.25;;;22.40;56.30;;;;;;4866204;29;45556;-83
2023/08/12 10:13:00;;;;;;;1.27;1.15;;;22.40;56.30;;;;;;4868366;29;45232;-86
2023/08/12 10:15:25;;;;;;;1.45;1.30;;;22.40;56.30;;;;;;4847515;29;46520;-86
2023/08/12 10:17:51;;;;;;;1.30;1.17;;;22.40;56.30;;;;;;4863180;29;45249;-83
2023/08/12 10:20:21;;;;;;;1.38;1.13;;;22.40;56.30;;;;;;4876987;29;45318;-86
2023/08/12 10:22:46;;;;;;;1.63;1.30;;;22.40;56.30;;;;;;4848102;29;44956;-83
2023/08/12 10:25:13;;;;;;;1.25;1.05;;;22.40;56.30;;;;;;4864402;29;46919;-82
2023/08/12 10:27:39;;;;;;;2.17;1.58;;;22.40;56.30;;;;;;4870518;29;44976;-88
2023/08/12 10:30:05;;;;;;;2.47;1.20;;;22.40;56.30;;;;;;4852152;29;44724;-86
2023/08/12 10:32:31;;;;;;;1.45;1.25;;;22.40;56.30;;;;;;4862320;29;45290;-84
2023/08/12 10:34:57;;;;;;;2.08;1.40;;;22.40;56.30;;;;;;4862016;29;46428;-82
2023/08/12 10:37:26;;;;;;;1.75;1.35;;;22.40;56.30;;;;;;4861528;29;45362;-83
2023/08/12 10:39:55;;;;;;;1.95;1.30;;;22.40;56.40;;;;;;4847515;29;45344;-82
2023/08/12 10:42:41;;;;;;;1.83;1.33;;;22.40;57.00;;;;;;4847185;29;46249;-84
2023/08/12 10:45:17;;;;;;;2.40;1.42;;;22.40;56.40;;;;;;4866120;29;47552;-84
2023/08/12 10:47:44;;;;;;;1.20;1.10;;;22.40;56.50;;;;;;4862560;29;45526;-88
2023/08/12 10:50:20;;;;;;;1.60;1.20;;;22.40;56.40;;;;;;4866252;29;45402;-86
2023/08/12 10:52:45;;;;;;;1.20;1.00;;;22.50;56.50;;;;;;4851066;29;46210;-83
2023/08/12 10:55:24;;;;;;;1.92;1.20;;;22.40;56.40;;;;;;4862867;29;45156;-84
2023/08/12 10:57:50;;;;;;;1.55;1.20;;;22.50;56.50;;;;;;4864208;29;44683;-83
2023/08/12 11:00:23;;;;;;;1.52;1.10;;;22.40;57.00;;;;;;4851482;29;45616;-82
2023/08/12 11:02:50;;;;;;;1.92;1.38;;;22.50;56.40;;;;;;4870281;29;45299;-82
2023/08/12 11:05:17;;;;;;;2.90;1.23;;;22.40;56.40;;;;;;4881215;29;45655;-84
2023/08/12 11:07:43;;;;;;;2.28;1.33;;;22.50;56.40;;;;;;4854154;29;45134;-84
2023/08/12 11:10:19;;;;;;;1.58;1.30;;;22.50;56.40;;;;;;4857574;29;45242;-85
2023/08/12 11:12:56;;;;;;;1.30;1.20;;;22.50;56.50;;;;;;4846680;29;45531;-83
2023/08/12 11:15:32;;;;;;;2.63;1.52;;;22.50;56.50;;;;;;4873575;29;45918;-83
2023/08/12 11:17:58;;;;;;;1.08;1.00;;;22.50;56.50;;;;;;4862033;29;45616;-82
2023/08/12 11:20:23;;;;;;;1.48;1.02;;;22.50;56.40;;;;;;4845652;29;45052;-82
2023/08/12 11:22:49;;;;;;;2.15;1.30;;;22.50;56.40;;;;;;4847583;29;44783;-84
2023/08/12 11:25:14;;;;;;;1.70;1.30;;;22.50;56.40;;;;;;4860722;29;46473;-82
2023/08/12 11:27:44;;;;;;;2.05;1.10;;;22.50;56.50;;;;;;4874215;29;45603;-82
2023/08/12 11:30:15;;;;;;;1.20;1.10;;;22.50;56.50;;;;;;4849275;29;45105;-85
2023/08/12 11:32:48;;;;;;;1.70;1.20;;;22.50;56.50;;;;;;4860341;29;45530;-83
2023/08/12 11:35:15;;;;;;;1.88;1.40;;;22.50;56.70;;;;;;4846124;29;45947;-83
2023/08/12 11:37:41;;;;;;;1.48;1.02;;;22.50;56.50;;;;;;4874636;29;45224;-86
2023/08/12 11:40:11;;;;;;;1.52;1.20;;;22.50;56.50;;;;;;4861483;29;45296;-85
2023/08/12 11:42:38;;;;;;;2.95;1.50;;;22.50;56.70;;;;;;4846426;29;45266;-86
2023/08/12 11:45:11;;;;;;;1.30;1.17;;;22.50;56.60;;;;;;4859065;29;45586;-89
2023/08/12 11:47:37;;;;;;;;;;;22.60;56.70;;;;;;4825290;29;46033;-85
2023/08/12 11:50:04;;;;;;;1.42;1.30;;;22.50;56.90;;;;;;4845127;29;45720;-86
2023/08/12 11:52:30;;;;;;;4.35;1.40;;;22.50;56.60;;;;;;4859966;29;45254;-82
2023/08/12 11:54:56;;;;;;;1.48;1.30;;;22.60;56.60;;;;;;4844884;29;46990;-82
2023/08/12 11:57:22;;;;;;;1.60;1.30;;;22.60;56.60;;;;;;4856727;29;45432;-87
2023/08/12 11:59:47;;;;;;;2.47;1.42;;;22.60;56.60;;;;;;4877455;29;45615;-83
2023/08/12 12:02:13;;;;;;;4.10;1.20;;;22.60;56.80;;;;;;4838144;29;46834;-85
2023/08/12 12:04:41;;;;;;;1.58;1.38;;;22.60;56.90;;;;;;4840657;29;46098;-79
2023/08/12 12:07:17;;;;;;;2.10;1.30;;;22.60;57.00;;;;;;4857099;29;45696;-82
2023/08/12 12:09:44;;;;;;;1.67;1.20;;;22.60;57.00;;;;;;4847296;29;44913;-83
2023/08/12 12:12:10;;;;;;;3.25;1.20;;;22.60;57.00;;;;;;4862974;29;44849;-82
2023/08/12 12:14:35;;;;;;;1.75;1.25;;;22.70;57.00;;;;;;4862958;29;46946;-80
2023/08/12 12:17:06;;;;;;;1.15;1.05;;;22.60;56.90;;;;;;4856789;29;45042;-80
2023/08/12 12:19:31;;;;;;;1.95;1.45;;;22.70;57.00;;;;;;4843162;29;46116;-81
2023/08/12 12:21:57;;;;;;;5.72;1.50;;;22.70;57.00;;;;;;4877173;29;44740;-83
2023/08/12 12:24:22;;;;;;;3.63;1.67;;;22.70;57.20;;;;;;4874873;29;45543;-81
2023/08/12 12:26:49;;;;;;;3.83;1.52;;;22.70;57.10;;;;;;4855820;29;45237;-82
2023/08/12 12:29:14;;;;;;;2.58;1.60;;;22.70;57.40;;;;;;4858201;29;45296;-83
2023/08/12 12:31:40;;;;;;;2.70;1.30;;;22.70;57.60;;;;;;4854364;29;44707;-81
2023/08/12 12:34:06;;;;;;;1.85;1.50;;;22.70;57.80;;;;;;4857018;29;45262;-84
2023/08/12 12:36:37;;;;;;;2.65;1.60;;;22.70;57.60;;;;;;4840369;29;45293;-82
2023/08/12 12:39:03;;;;;;;3.90;2.03;;;22.70;57.60;;;;;;4875057;29;45325;-86
2023/08/12 12:41:29;;;;;;;1.88;1.40;;;22.70;57.50;;;;;;4862362;23;45519;-47
2023/08/12 12:43:55;;;;;;;2.17;1.50;;;22.80;57.50;;;;;;4922019;28;45853;-47
2023/08/12 12:46:20;;;;;;;1.67;1.23;;;22.70;57.40;;;;;;4899273;28;45392;-46
2023/08/12 12:48:46;;;;;;;3.35;1.50;;;22.70;57.40;;;;;;4916257;28;45411;-45
2023/08/12 12:51:12;;;;;;;3.00;1.38;;;22.70;57.50;;;;;;4891526;28;45546;-46
2023/08/12 12:53:38;;;;;;;2.72;1.70;;;22.70;57.50;;;;;;4918315;28;45274;-47
2023/08/12 12:56:04;;;;;;;1.50;1.20;;;22.80;57.50;;;;;;4894432;28;45174;-47
2023/08/12 12:58:31;;;;;;;1.98;1.58;;;22.80;57.50;;;;;;4917279;28;45307;-46
2023/08/12 13:00:57;;;;;;;2.17;1.33;;;22.80;57.50;;;;;;4899839;28;45144;-45
2023/08/12 13:03:23;;;;;;;2.83;1.67;;;22.70;57.50;;;;;;4895673;28;48377;-45
2023/08/12 13:05:49;;;;;;;3.17;1.50;;;22.80;57.40;;;;;;4909994;28;45134;-46
2023/08/12 13:08:15;;;;;;;2.28;1.70;;;22.80;57.40;;;;;;4903757;28;45257;-45
2023/08/12 13:10:40;;;;;;;2.03;1.70;;;22.80;57.40;;;;;;4903439;28;45373;-47
2023/08/12 13:13:06;;;;;;;1.50;1.40;;;22.80;57.40;;;;;;4920934;28;45944;-46
2023/08/12 13:15:31;;;;;;;2.42;1.52;;;22.80;57.40;;;;;;4896618;28;45513;-46
2023/08/12 13:17:57;;;;;;;1.88;1.30;;;22.80;57.40;;;;;;4914178;28;45131;-46
2023/08/12 13:20:22;;;;;;;2.40;1.35;;;22.80;57.50;;;;;;4906466;28;46105;-45
2023/08/12 13:22:48;;;;;;;2.20;1.50;;;22.80;57.40;;;;;;4905344;28;45223;-46
2023/08/12 13:25:15;;;;;;;2.50;1.50;;;22.80;57.40;;;;;;4911717;28;45152;-45
2023/08/12 13:27:40;;;;;;;1.48;1.30;;;22.80;57.40;;;;;;4900063;28;45630;-46
2023/08/12 13:30:13;;;;;;;2.30;1.67;;;22.80;57.40;;;;;;4908319;28;45318;-46
2023/08/12 13:32:45;;;;;;;4.18;1.60;;;22.80;57.50;;;;;;4885685;28;46046;-47
2023/08/12 13:35:26;;;;;;;1.40;1.30;;;22.80;57.40;;;;;;4901798;28;45360;-45
2023/08/12 13:37:52;;;;;;;2.40;1.42;;;22.80;57.40;;;;;;4900414;28;45291;-46
2023/08/12 13:40:17;;;;;;;2.58;1.40;;;22.80;57.40;;;;;;4899728;28;45360;-45
2023/08/12 13:42:43;;;;;;;2.17;1.33;;;22.80;57.40;;;;;;4916181;28;45222;-46
2023/08/12 13:45:10;;;;;;;2.15;1.27;;;22.80;57.40;;;;;;4907776;28;45200;-46
2023/08/12 13:47:36;;;;;;;2.03;1.60;;;22.80;57.40;;;;;;4886640;28;45046;-45
2023/08/12 13:50:06;;;;;;;1.52;1.20;;;22.80;57.40;;;;;;4915068;28;44933;-45
2023/08/12 13:52:32;;;;;;;1.77;1.30;;;22.80;58.00;;;;;;4889264;28;45439;-46
2023/08/12 13:54:58;;;;;;;3.65;1.58;;;22.80;57.40;;;;;;4913020;28;45394;-44
2023/08/12 13:57:24;;;;;;;1.88;1.45;;;22.80;57.40;;;;;;4901420;28;46560;-46
2023/08/12 13:59:49;;;;;;;3.03;1.40;;;22.80;57.50;;;;;;4906747;28;45828;-46
2023/08/12 14:02:15;;;;;;;4.43;1.60;;;22.90;57.70;;;;;;4875401;28;46134;-47
2023/08/12 14:04:40;;;;;;;4.13;1.70;;;22.80;58.10;;;;;;4901772;28;45175;-46
2023/08/12 14:07:06;;;;;;;2.00;1.45;;;22.80;58.20;;;;;;4899409;28;45651;-47
2023/08/12 14:09:32;;;;;;;1.40;1.05;;;22.90;58.10;;;;;;4906645;28;45802;-46
2023/08/12 14:11:58;;;;;;;2.33;1.38;;;22.90;58.50;;;;;;4901601;28;45945;-46
2023/08/12 14:14:27;;;;;;;2.05;1.30;;;22.80;58.30;;;;;;4920990;28;45258;-45
2023/08/12 14:16:53;;;;;;;1.95;1.50;;;22.90;58.50;;;;;;4888745;28;45760;-46
2023/08/12 14:19:19;;;;;;;2.40;1.45;;;22.90;58.40;;;;;;4905558;28;45509;-46
2023/08/12 14:21:45;;;;;;;1.55;1.38;;;22.90;58.60;;;;;;4900896;28;45592;-46
2023/08/12 14:24:11;;;;;;;1.95;1.35;;;22.90;58.50;;;;;;4912089;28;45296;-47
2023/08/12 14:26:36;;;;;;;2.30;1.50;;;22.90;58.50;;;;;;4899482;28;46440;-47
2023/08/12 14:29:02;;;;;;;2.85;1.50;;;22.80;58.60;;;;;;4917167;28;46033;-46
2023/08/12 14:31:28;;;;;;;2.75;1.40;;;22.80;58.90;;;;;;4886832;28;46136;-46
2023/08/12 14:33:53;;;;;;;3.15;1.55;;;22.90;59.20;;;;;;4911260;28;45335;-46
2023/08/12 14:36:19;;;;;;;1.88;1.30;;;22.80;59.10;;;;;;4900025;28;45785;-48
2023/08/12 14:38:44;;;;;;;1.85;1.48;;;22.80;59.10;;;;;;4912966;28;45757;-48
2023/08/12 14:41:10;;;;;;;5.88;1.60;;;22.80;59.20;;;;;;4892478;28;45287;-46
2023/08/12 14:43:36;;;;;;;2.55;1.17;;;22.90;59.30;;;;;;4910267;28;45210;-47
2023/08/12 14:46:02;;;;;;;2.38;1.30;;;22.80;59.10;;;;;;4871640;28;45311;-46
2023/08/12 14:48:28;;;;;;;5.13;1.60;;;22.80;59.10;;;;;;4895231;28;45633;-47
2023/08/12 14:50:54;;;;;;;3.30;1.40;;;22.90;58.80;;;;;;4905272;28;45075;-48
2023/08/12 14:53:20;;;;;;;2.28;1.27;;;22.90;58.90;;;;;;4910964;28;45365;-47
2023/08/12 14:55:45;;;;;;;2.35;1.40;;;22.90;58.90;;;;;;4899741;28;45516;-47
2023/08/12 14:58:11;;;;;;;2.42;1.10;;;22.80;58.70;;;;;;4916259;28;45555;-46
2023/08/12 15:00:37;;;;;;;2.28;1.17;;;22.80;58.50;;;;;;4889753;28;45312;-47
2023/08/12 15:03:03;;;;;;;2.65;1.45;;;22.80;58.60;;;;;;4905621;28;45293;-49
2023/08/12 15:05:28;;;;;;;4.05;1.35;;;22.90;58.30;;;;;;4894752;28;45186;-46
2023/08/12 15:07:54;;;;;;;2.38;1.40;;;22.90;58.20;;;;;;4910344;28;45328;-45
2023/08/12 15:10:19;;;;;;;1.98;1.30;;;22.90;58.10;;;;;;4898175;28;46091;-49
2023/08/12 15:12:45;;;;;;;1.30;1.05;;;22.90;58.00;;;;;;4906409;28;45429;-46
2023/08/12 15:15:11;;;;;;;5.00;1.40;;;22.90;58.20;;;;;;4889100;28;45208;-48
2023/08/12 15:17:36;;;;;;;2.35;1.23;;;22.90;58.10;;;;;;4895876;28;45620;-47
2023/08/12 15:20:10;;;;;;;2.53;1.30;;;22.90;58.10;;;;;;4913584;28;47192;-46
2023/08/12 15:22:35;;;;;;;2.30;1.50;;;22.90;58.00;;;;;;4903843;28;45120;-47
2023/08/12 15:25:01;;;;;;;1.67;1.17;;;22.90;58.10;;;;;;4915698;28;45290;-47
2023/08/12 15:27:27;;;;;;;1.38;1.27;;;22.90;57.90;;;;;;4895253;28;46135;-45
2023/08/12 15:29:53;;;;;;;4.22;1.45;;;22.90;58.70;;;;;;4915124;28;46146;-45
2023/08/12 15:32:19;;;;;;;1.77;1.20;;;22.80;58.70;;;;;;4883107;28;45915;-48
2023/08/12 15:34:44;;;;;;;1.70;1.10;;;22.90;58.80;;;;;;4904291;28;45286;-46
2023/08/12 15:37:10;;;;;;;1.40;1.20;;;22.90;58.30;;;;;;4889041;28;46451;-48
2023/08/12 15:39:36;;;;;;;1.73;1.23;;;22.90;58.10;;;;;;4907632;28;45312;-45
2023/08/12 15:42:02;;;;;;;2.15;1.02;;;22.90;58.10;;;;;;4909913;28;45188;-45
2023/08/12 15:44:27;;;;;;;2.08;1.27;;;22.90;58.00;;;;;;4905094;28;45242;-45